METAR* REPORTS - Stations within 60 miles

(*Meteorological Terminal Aviation Routine weather report)

 

KRDG - Reading, Pennsylvania, USA
Distance from station: SE 19mi, 31km
Updated: Thu, 06-May-2021 11:54pm EDT
Clear
Clear
 Wind from calm
Wind: Calm
Temperature: 52°F , 11°C
Dew Point: 37°F , 3°C
Humidity: 58%
Barometer: 29.96 inHg , 1014.6 hPa
Clouds: Clear
Visibility: 10 miles , 16 km
2021/05/07 03:54 KRDG 070354Z AUTO 00000KT 10SM CLR 11/03 A2996 RMK AO2 SLP149 T01110028
KLNS - Lancaster, Pennsylvania, USA
Distance from station: S 33mi, 53km
Updated: Thu, 06-May-2021 11:53pm EDT
Partly Cloudy
Partly Cloudy
 Wind from E
Wind: E 5 mph , 7 km/h
Temperature: 52°F , 11°C
Dew Point: 39°F , 4°C
Humidity: 62%
Barometer: 29.96 inHg , 1014.6 hPa
Clouds: Partly Cloudy
Visibility: 10 miles , 16 km
Cloud details: Partly Cloudy 7000 ft
2021/05/07 03:53 KLNS 070353Z AUTO 10004KT 10SM SCT070 11/04 A2996 RMK AO2 SLP146 T01060044
 
KSEG - Selinsgrove, Pennsylvania, USA
Distance from station: WNW 39mi, 62km
Updated: Thu, 06-May-2021 10:53pm EDT
Overcast
Overcast
 Wind from calm
Wind: Calm
Temperature: 48°F , 9°C
Dew Point: 39°F , 4°C
Humidity: 71%
Barometer: 29.98 inHg , 1015.2 hPa
Clouds: Overcast
Visibility: 10 miles , 16 km
Cloud details: Overcast 8000 ft
2021/05/07 02:53 KSEG 070253Z AUTO 00000KT 10SM OVC080 09/04 A2998 RMK AO2 SLP153 T00890044 51012
KABE - Allentown, Pennsylvania, USA
Distance from station: E 39mi, 63km
Updated: Thu, 06-May-2021 11:51pm EDT
Clear
Clear
 Wind from N
Wind: N 6 mph , 9 km/h
Temperature: 48°F , 9°C
Wind Chill: 45°F , 7°C
Dew Point: 32°F , 0°C
Humidity: 54%
Barometer: 29.97 inHg , 1014.9 hPa
Clouds: Clear
Visibility: 10 miles , 16 km
2021/05/07 03:51 KABE 070351Z 01005KT 10SM CLR 09/00 A2997 RMK AO2 SLP149 T00890000
 
KMDT - Middletown, Pennsylvania, USA
Distance from station: SW 40mi, 65km
Updated: Thu, 06-May-2021 11:56pm EDT
Mostly Cloudy
Mostly Cloudy
 Wind from varies
Wind: varies 3 mph , 6 km/h
Temperature: 55°F , 13°C
Dew Point: 43°F , 6°C
Humidity: 63%
Barometer: 29.95 inHg , 1014.2 hPa
Clouds: Mostly Cloudy
Visibility: 10 miles , 16 km
Cloud details: Mostly Cloudy 7500 ft
2021/05/07 03:56 KMDT 070356Z VRB03KT 10SM BKN075 13/06 A2995 RMK AO2 SLP143 T01330061
KPTW - Pottstown, Pennsylvania, USA
Distance from station: SE 42mi, 67km
Updated: Thu, 06-May-2021 10:54pm EDT
Clear
Clear
 Wind from calm
Wind: Calm
Temperature: 48°F , 9°C
Dew Point: 36°F , 2°C
Humidity: 62%
Barometer: 29.98 inHg , 1015.2 hPa
Clouds: Clear
Visibility: 10 miles , 16 km
2021/05/07 02:54 KPTW 070254Z AUTO 00000KT 10SM CLR 09/02 A2998 RMK AO2 SLP151 T00940022 50011
 
KCXY - Harrisburg, Pennsylvania, USA
Distance from station: SW 43mi, 69km
Updated: Thu, 06-May-2021 11:56pm EDT
Clear
Clear
 Wind from calm
Wind: Calm
Temperature: 52°F , 11°C
Dew Point: 41°F , 5°C
Humidity: 67%
Barometer: 29.96 inHg , 1014.6 hPa
Clouds: Clear
Visibility: 10 miles , 16 km
2021/05/07 03:56 KCXY 070356Z AUTO 00000KT 10SM CLR 11/05 A2996 RMK AO2 SLP145 T01060050
KUKT - Quakertown Arp, Pennsylvania, USA
Distance from station: ESE 44mi, 70km
Updated: Thu, 06-May-2021 11:55pm EDT
Clear
Clear
 Wind from calm
Wind: Calm
Temperature: 48°F , 9°C
Dew Point: 36°F , 2°C
Humidity: 62%
Barometer: 29.97 inHg , 1014.9 hPa
Clouds: Clear
Visibility: 10 miles , 16 km
2021/05/07 03:55 KUKT 070355Z AUTO 00000KT 10SM CLR 09/02 A2997 RMK A01
 
KMQS - Coatesville, Pennsylvania, USA
Distance from station: SSE 45mi, 72km
Updated: Thu, 06-May-2021 11:35pm EDT
Clear
Clear
 Wind from N
Wind: N 3 mph , 6 km/h
Temperature: 48°F , 9°C
Dew Point: 41°F , 5°C
Humidity: 76%
Barometer: 29.98 inHg , 1015.2 hPa
Clouds: Clear
Visibility: 10 miles , 16 km
2021/05/07 03:35 KMQS 070335Z AUTO 36003KT 10SM CLR 09/05 A2998 RMK AO2
KMPO - Mt. Pocono, Pennsylvania, USA
Distance from station: NE 57mi, 92km
Updated: Thu, 06-May-2021 11:53pm EDT
Clear
Clear
 Wind from N
Wind: N 7 mph , 11 km/h
Temperature: 45°F , 7°C
Wind Chill: 41°F , 5°C
Dew Point: 27°F , -3°C
Humidity: 49%
Barometer: 29.96 inHg , 1014.6 hPa
Clouds: Clear
Visibility: 10 miles , 16 km
2021/05/07 03:53 KMPO 070353Z AUTO 01006KT 10SM CLR 07/M03 A2996 RMK AO2 SLP152 T00671033
 
KAVP - Avoca/Wilkes B., Pennsylvania, USA
Distance from station: NNE 58mi, 93km
Updated: Thu, 06-May-2021 11:54pm EDT
Few Clouds
Few Clouds
 Wind from ENE
Wind: ENE 6 mph , 9 km/h
Temperature: 46°F , 8°C
Wind Chill: 43°F , 6°C
Dew Point: 30°F , -1°C
Humidity: 53%
Barometer: 29.98 inHg , 1015.2 hPa
Clouds: Few Clouds
Visibility: 10 miles , 16 km
Cloud details: Few Clouds 12000 ft
2021/05/07 03:54 KAVP 070354Z 07005KT 10SM FEW120 08/M01 A2998 RMK AO2 SLP151 T00831006
KTHV - York, Pennsylvania, USA
Distance from station: SW 59mi, 94km
Updated: Thu, 06-May-2021 11:53pm EDT
Clear
Clear
 Wind from calm
Wind: Calm
Temperature: 46°F , 8°C
Dew Point: 43°F , 6°C
Humidity: 87%
Barometer: 29.96 inHg , 1014.6 hPa
Clouds: Clear
Visibility: 10 miles , 16 km
2021/05/07 03:53 KTHV 070353Z AUTO 00000KT 10SM CLR 08/06 A2996 RMK AO2 SLP147 T00780056
 
KDYL - Doylestown, Pennsylvania, USA
Distance from station: ESE 59mi, 95km
Updated: Thu, 06-May-2021 10:54pm EDT
Clear
Clear
 Wind from NNE
Wind: NNE 3 mph , 6 km/h
Temperature: 54°F , 12°C
Dew Point: 34°F , 1°C
Humidity: 47%
Barometer: 29.96 inHg , 1014.6 hPa
Clouds: Clear
Visibility: 10 miles , 16 km
2021/05/07 02:54 KDYL 070254Z AUTO 03003KT 10SM CLR 12/01 A2996 RMK AO2 SLP146 T01170006 50009
KIPT - Williamsport, Pennsylvania, USA
Distance from station: NW 60mi, 96km
Updated: Thu, 06-May-2021 11:54pm EDT
Clear
Clear
 Wind from calm
Wind: Calm
Temperature: 46°F , 8°C
Dew Point: 36°F , 2°C
Humidity: 66%
Barometer: 29.98 inHg , 1015.2 hPa
Clouds: Clear
Visibility: 10 miles , 16 km
2021/05/07 03:54 KIPT 070354Z AUTO 00000KT 10SM CLR 08/02 A2998 RMK AO2 SLP152 T00780022